Time;durP1;ratioP1;P1;durP2;ratioP2;P2;SDS_P1;SDS_P2;PMS_P1;PMS_P2;Temp;Humidity;BMP_temperature;BMP_pressure;BME280_temperature;BME280_humidity;BME280_pressure;Samples;Min_cycle;Max_cycle;Signal;HPM_P1;HPM_P2
2021/07/20 00:00:14;;;;;;;19.92;12.18;;;;;;;;;;5087771;28;20554;-79
2021/07/20 00:02:46;;;;;;;24.10;13.25;;;;;;;;;;5078082;28;20114;-79
2021/07/20 00:05:15;;;;;;;25.40;17.02;;;;;;;;;;5083693;28;20036;-80
2021/07/20 00:07:43;;;;;;;29.48;19.30;;;;;;;;;;5083492;28;20054;-81
2021/07/20 00:10:15;;;;;;;32.05;23.40;;;;;;;;;;5073144;28;20044;-80
2021/07/20 00:12:42;;;;;;;33.53;25.95;;;;;;;;;;5051443;28;20035;-81
2021/07/20 00:15:12;;;;;;;37.42;28.00;;;;;;;;;;5070427;28;20040;-84
2021/07/20 00:17:42;;;;;;;36.97;28.13;;;;;;;;;;5059341;28;20121;-83
2021/07/20 00:20:11;;;;;;;36.70;26.48;;;;;;;;;;5081438;28;20070;-82
2021/07/20 00:22:38;;;;;;;31.48;23.80;;;;;;;;;;5080477;28;20032;-84
2021/07/20 00:25:09;;;;;;;32.28;23.60;;;;;;;;;;5069889;28;20028;-82
2021/07/20 00:27:35;;;;;;;27.35;21.00;;;;;;;;;;5083538;28;20529;-81
2021/07/20 00:30:03;;;;;;;28.15;19.15;;;;;;;;;;5080302;28;20036;-82
2021/07/20 00:32:30;;;;;;;27.45;17.05;;;;;;;;;;5074318;28;20119;-78
2021/07/20 00:34:56;;;;;;;27.63;16.77;;;;;;;;;;5069429;28;20079;-80
2021/07/20 00:37:23;;;;;;;32.92;17.02;;;;;;;;;;5063361;28;20055;-77
2021/07/20 00:39:49;;;;;;;27.88;15.35;;;;;;;;;;5072561;28;20044;-77
2021/07/20 00:42:16;;;;;;;22.73;14.20;;;;;;;;;;5092250;28;20042;-76
2021/07/20 00:44:42;;;;;;;29.83;17.85;;;;;;;;;;5080612;28;20043;-77
2021/07/20 00:47:09;;;;;;;25.75;16.60;;;;;;;;;;5087675;28;20060;-76
2021/07/20 00:49:36;;;;;;;19.95;12.57;;;;;;;;;;5093965;28;20497;-77
2021/07/20 00:52:03;;;;;;;19.50;9.98;;;;;;;;;;5084286;28;20040;-76
2021/07/20 00:54:29;;;;;;;18.05;10.35;;;;;;;;;;5093795;28;20114;-76
2021/07/20 00:56:58;;;;;;;16.77;10.60;;;;;;;;;;5090050;28;20032;-77
2021/07/20 00:59:25;;;;;;;17.90;10.50;;;;;;;;;;5064265;28;20084;-78
2021/07/20 01:01:51;;;;;;;18.42;12.52;;;;;;;;;;5084111;28;20505;-77
2021/07/20 01:04:18;;;;;;;19.50;11.25;;;;;;;;;;5083711;28;20447;-77
2021/07/20 01:06:48;;;;;;;18.02;12.13;;;;;;;;;;5081435;28;20047;-76
2021/07/20 01:09:15;;;;;;;29.02;13.20;;;;;;;;;;5101482;28;20100;-78
2021/07/20 01:11:42;;;;;;;20.55;13.60;;;;;;;;;;5069486;28;20066;-81
2021/07/20 01:14:13;;;;;;;23.10;13.50;;;;;;;;;;5033621;28;20056;-76
2021/07/20 01:16:43;;;;;;;21.00;12.70;;;;;;;;;;5080873;28;20509;-77
2021/07/20 01:19:14;;;;;;;20.42;13.60;;;;;;;;;;5097952;28;20073;-76
2021/07/20 01:21:42;;;;;;;21.55;12.30;;;;;;;;;;5097821;28;20040;-76
2021/07/20 01:24:19;;;;;;;21.33;11.63;;;;;;;;;;5069454;28;20401;-77
2021/07/20 01:26:53;;;;;;;25.63;14.15;;;;;;;;;;5019817;28;20044;-77
2021/07/20 01:29:22;;;;;;;22.50;13.13;;;;;;;;;;5014435;28;20046;-77
2021/07/20 01:31:49;;;;;;;;;;;;;;;;;;5044978;28;20046;-76
2021/07/20 01:34:17;;;;;;;27.70;14.38;;;;;;;;;;5063855;28;20366;-77
2021/07/20 01:36:46;;;;;;;29.48;15.02;;;;;;;;;;5069685;28;20044;-77
2021/07/20 01:39:14;;;;;;;28.80;15.88;;;;;;;;;;5070992;28;20040;-77
2021/07/20 01:41:42;;;;;;;25.60;16.02;;;;;;;;;;5082457;28;20040;-77
2021/07/20 01:44:11;;;;;;;29.60;15.20;;;;;;;;;;5101703;28;20044;-77
2021/07/20 01:46:39;;;;;;;26.70;16.00;;;;;;;;;;5100655;28;20426;-76
2021/07/20 01:49:14;;;;;;;26.27;14.90;;;;;;;;;;5084478;28;20040;-77
2021/07/20 01:51:42;;;;;;;27.88;15.82;;;;;;;;;;5083338;28;20028;-83
2021/07/20 01:54:10;;;;;;;29.42;17.45;;;;;;;;;;5101980;28;20048;-77
2021/07/20 01:56:36;;;;;;;37.17;18.63;;;;;;;;;;5094496;28;20096;-76
2021/07/20 01:59:04;;;;;;;31.80;18.08;;;;;;;;;;5098068;28;20040;-78
2021/07/20 02:01:42;;;;;;;34.53;19.35;;;;;;;;;;5066879;28;20052;-78
2021/07/20 02:09:44;;;;;;;36.47;18.58;;;;;;;;;;5084282;28;20508;-78
2021/07/20 02:12:15;;;;;;;40.17;20.10;;;;;;;;;;5080084;28;20044;-76
2021/07/20 02:14:44;;;;;;;40.92;20.42;;;;;;;;;;5066868;28;20056;-76
2021/07/20 02:17:13;;;;;;;38.78;20.95;;;;;;;;;;5084829;28;20551;-76
2021/07/20 02:19:47;;;;;;;42.30;22.33;;;;;;;;;;5085460;28;20036;-77
2021/07/20 02:22:21;;;;;;;35.85;18.30;;;;;;;;;;5083138;28;20119;-78
2021/07/20 02:24:51;;;;;;;35.72;18.00;;;;;;;;;;5066752;28;20056;-78
2021/07/20 02:27:21;;;;;;;36.28;18.58;;;;;;;;;;5053599;28;20071;-78
2021/07/20 02:29:50;;;;;;;40.60;20.70;;;;;;;;;;5087972;28;20043;-77
2021/07/20 02:32:21;;;;;;;33.50;19.33;;;;;;;;;;5092976;28;20122;-78
2021/07/20 02:34:48;;;;;;;34.63;19.50;;;;;;;;;;5084661;28;20032;-82
2021/07/20 02:37:15;;;;;;;39.80;23.00;;;;;;;;;;5102540;28;20118;-77
2021/07/20 02:39:44;;;;;;;38.97;21.52;;;;;;;;;;5090658;28;20464;-78
2021/07/20 02:42:11;;;;;;;;;;;;;;;;;;5092390;28;20040;-78
2021/07/20 02:44:39;;;;;;;38.20;21.25;;;;;;;;;;5096909;28;19999;-78
2021/07/20 02:47:06;;;;;;;43.03;22.20;;;;;;;;;;5080446;28;20072;-79
2021/07/20 02:49:36;;;;;;;40.75;22.45;;;;;;;;;;5054819;28;20040;-77
2021/07/20 02:52:07;;;;;;;37.00;22.45;;;;;;;;;;5064091;28;20115;-78
2021/07/20 02:54:34;;;;;;;44.08;23.52;;;;;;;;;;5079050;28;20052;-77
2021/07/20 02:57:01;;;;;;;40.72;22.13;;;;;;;;;;5069349;28;20431;-77
2021/07/20 02:59:30;;;;;;;40.67;22.48;;;;;;;;;;5066345;28;20097;-78
2021/07/20 03:02:02;;;;;;;38.67;22.75;;;;;;;;;;5057362;28;20039;-78
2021/07/20 03:04:29;;;;;;;46.33;23.33;;;;;;;;;;5079025;28;20035;-78
2021/07/20 03:07:01;;;;;;;39.55;22.40;;;;;;;;;;5043027;28;20048;-80
2021/07/20 03:09:30;;;;;;;41.70;22.15;;;;;;;;;;5082294;28;20039;-79
2021/07/20 03:12:02;;;;;;;40.47;21.25;;;;;;;;;;5064898;28;20058;-78
2021/07/20 03:14:30;;;;;;;36.28;20.20;;;;;;;;;;5082133;28;20040;-78
2021/07/20 03:16:58;;;;;;;32.70;19.08;;;;;;;;;;5098400;28;20047;-78
2021/07/20 03:19:28;;;;;;;35.65;19.38;;;;;;;;;;5090715;28;20044;-77
2021/07/20 03:22:00;;;;;;;39.03;20.60;;;;;;;;;;5084778;28;20122;-80
2021/07/20 03:24:27;;;;;;;35.35;19.75;;;;;;;;;;5055665;28;20111;-81
2021/07/20 03:26:55;;;;;;;40.50;21.27;;;;;;;;;;5102248;28;20084;-76
2021/07/20 03:29:22;;;;;;;48.72;25.02;;;;;;;;;;5083917;28;20495;-75
2021/07/20 03:31:51;;;;;;;43.88;22.35;;;;;;;;;;5083611;28;20047;-76
2021/07/20 03:34:19;;;;;;;44.53;23.13;;;;;;;;;;5073576;28;20090;-76
2021/07/20 03:36:47;;;;;;;48.55;23.33;;;;;;;;;;5069874;28;20135;-77
2021/07/20 03:39:14;;;;;;;46.20;21.98;;;;;;;;;;5064130;28;20048;-80
2021/07/20 03:41:43;;;;;;;45.20;20.38;;;;;;;;;;5073178;28;20524;-77
2021/07/20 03:44:10;;;;;;;42.17;21.05;;;;;;;;;;5086884;28;20440;-77
2021/07/20 03:46:39;;;;;;;40.60;21.77;;;;;;;;;;5084222;28;20056;-77
2021/07/20 03:49:07;;;;;;;34.83;20.10;;;;;;;;;;5055525;28;20042;-77
2021/07/20 03:51:35;;;;;;;35.50;18.27;;;;;;;;;;5075103;28;20048;-77
2021/07/20 03:54:03;;;;;;;29.17;14.18;;;;;;;;;;5073985;28;20461;-77
2021/07/20 03:56:35;;;;;;;34.35;18.67;;;;;;;;;;5060644;28;20409;-78
2021/07/20 03:59:08;;;;;;;39.85;17.73;;;;;;;;;;5058358;28;20047;-78
2021/07/20 04:01:38;;;;;;;30.50;14.38;;;;;;;;;;5081616;28;20063;-78
2021/07/20 04:04:07;;;;;;;21.20;11.52;;;;;;;;;;5080390;28;20139;-78
2021/07/20 04:06:37;;;;;;;21.70;10.82;;;;;;;;;;5068571;28;20119;-81
2021/07/20 04:09:04;;;;;;;23.25;10.93;;;;;;;;;;5094282;28;20039;-78
2021/07/20 04:11:31;;;;;;;23.60;11.40;;;;;;;;;;5070010;28;20036;-78
2021/07/20 04:13:58;;;;;;;25.77;11.95;;;;;;;;;;5081841;28;20048;-78
2021/07/20 04:16:25;;;;;;;24.73;13.25;;;;;;;;;;5081774;28;20040;-78
2021/07/20 04:18:53;;;;;;;29.08;15.60;;;;;;;;;;5081624;28;20040;-79
2021/07/20 04:21:20;;;;;;;31.85;18.05;;;;;;;;;;5082141;28;20497;-80
2021/07/20 04:23:50;;;;;;;27.83;15.40;;;;;;;;;;5064416;28;20082;-77
2021/07/20 04:26:18;;;;;;;27.55;15.90;;;;;;;;;;5066912;28;20043;-78
2021/07/20 04:28:45;;;;;;;22.83;15.02;;;;;;;;;;5090853;28;20042;-79
2021/07/20 04:31:13;;;;;;;22.15;12.13;;;;;;;;;;5060152;28;20118;-77
2021/07/20 04:33:40;;;;;;;25.88;13.13;;;;;;;;;;5081274;28;20040;-78
2021/07/20 04:36:07;;;;;;;23.08;13.13;;;;;;;;;;5080492;28;20036;-76
2021/07/20 04:38:38;;;;;;;31.33;15.38;;;;;;;;;;5062458;28;20047;-77
2021/07/20 04:41:04;;;;;;;33.63;18.17;;;;;;;;;;5059970;28;20032;-78
2021/07/20 04:43:33;;;;;;;34.20;16.80;;;;;;;;;;5073059;28;20046;-77
2021/07/20 04:46:00;;;;;;;37.67;18.70;;;;;;;;;;5081969;28;20070;-77
2021/07/20 04:48:29;;;;;;;36.00;18.23;;;;;;;;;;5055706;28;20059;-76
2021/07/20 04:50:57;;;;;;;32.67;18.20;;;;;;;;;;5062096;28;20055;-77
2021/07/20 04:53:24;;;;;;;31.77;17.50;;;;;;;;;;5072176;28;20115;-78
2021/07/20 04:55:53;;;;;;;30.88;16.08;;;;;;;;;;5052545;28;20040;-78
2021/07/20 04:58:20;;;;;;;30.30;17.27;;;;;;;;;;5057018;28;20045;-78
2021/07/20 05:00:52;;;;;;;27.33;16.02;;;;;;;;;;5061951;28;20529;-81
2021/07/20 05:03:21;;;;;;;28.80;14.65;;;;;;;;;;5061224;28;20550;-80
2021/07/20 05:05:49;;;;;;;30.75;15.15;;;;;;;;;;5061356;28;20037;-78
2021/07/20 05:08:18;;;;;;;27.10;15.55;;;;;;;;;;5053333;28;20510;-81
2021/07/20 05:10:49;;;;;;;26.55;12.88;;;;;;;;;;5067365;28;20072;-79
2021/07/20 05:13:18;;;;;;;26.00;13.82;;;;;;;;;;5055484;28;20047;-79
2021/07/20 05:16:05;;;;;;;;;;;;;;;;;;5059609;28;20037;-77
2021/07/20 05:18:34;;;;;;;26.50;11.85;;;;;;;;;;5076695;28;19999;-78
2021/07/20 05:21:02;;;;;;;25.33;12.05;;;;;;;;;;5060201;28;20075;-77
2021/07/20 05:23:33;;;;;;;25.98;14.77;;;;;;;;;;5061800;28;20102;-77
2021/07/20 05:26:00;;;;;;;31.67;15.57;;;;;;;;;;5063420;28;20097;-78
2021/07/20 05:28:30;;;;;;;30.13;16.25;;;;;;;;;;5066626;28;20045;-79
2021/07/20 05:30:59;;;;;;;39.53;17.95;;;;;;;;;;5064959;28;20044;-77
2021/07/20 05:33:26;;;;;;;32.33;16.63;;;;;;;;;;5063944;28;20050;-78
2021/07/20 05:35:55;;;;;;;34.58;18.20;;;;;;;;;;5067046;28;20082;-78
2021/07/20 05:38:23;;;;;;;38.38;19.75;;;;;;;;;;5049476;28;20127;-77
2021/07/20 05:40:51;;;;;;;41.67;19.38;;;;;;;;;;5064947;28;20068;-77
2021/07/20 05:43:18;;;;;;;44.00;18.85;;;;;;;;;;5066473;28;20036;-80
2021/07/20 05:45:45;;;;;;;39.50;17.55;;;;;;;;;;5063791;28;20095;-77
2021/07/20 05:48:17;;;;;;;37.33;17.90;;;;;;;;;;5097643;28;20572;-78
2021/07/20 05:50:50;;;;;;;42.00;17.83;;;;;;;;;;5088578;28;20081;-77
2021/07/20 05:53:18;;;;;;;37.92;17.70;;;;;;;;;;5106362;28;20047;-77
2021/07/20 05:55:51;;;;;;;38.08;16.23;;;;;;;;;;5087831;28;20052;-77
2021/07/20 05:58:19;;;;;;;39.10;18.45;;;;;;;;;;5086949;28;20036;-77
2021/07/20 06:00:46;;;;;;;41.47;17.75;;;;;;;;;;5096136;28;20134;-77
2021/07/20 06:03:18;;;;;;;37.38;18.30;;;;;;;;;;5082377;28;20048;-77
2021/07/20 06:05:48;;;;;;;37.65;16.40;;;;;;;;;;5088504;28;20082;-81
2021/07/20 06:08:19;;;;;;;31.85;16.83;;;;;;;;;;5095799;28;20046;-77
2021/07/20 06:10:50;;;;;;;39.13;16.80;;;;;;;;;;5103748;28;20047;-79
2021/07/20 06:13:17;;;;;;;38.15;17.58;;;;;;;;;;5094970;28;20047;-77
2021/07/20 06:15:47;;;;;;;36.95;16.08;;;;;;;;;;5078651;28;20061;-78
2021/07/20 06:18:13;;;;;;;37.33;17.40;;;;;;;;;;5087648;28;20058;-77
2021/07/20 06:20:55;;;;;;;34.25;16.90;;;;;;;;;;5105756;28;20086;-78
2021/07/20 06:23:23;;;;;;;31.45;15.60;;;;;;;;;;5103657;28;20078;-77
2021/07/20 06:25:52;;;;;;;33.90;17.17;;;;;;;;;;5105380;28;20039;-77
2021/07/20 06:28:20;;;;;;;;;;;;;;;;;;5105515;28;20126;-77
2021/07/20 06:30:47;;;;;;;38.03;17.38;;;;;;;;;;5105823;28;19916;-77
2021/07/20 06:33:15;;;;;;;36.83;15.65;;;;;;;;;;5105384;28;20477;-77
2021/07/20 06:35:46;;;;;;;32.92;16.48;;;;;;;;;;5087350;28;20042;-81
2021/07/20 06:38:21;;;;;;;32.42;16.75;;;;;;;;;;5105565;28;20123;-77
2021/07/20 06:40:53;;;;;;;34.75;18.08;;;;;;;;;;5070426;28;20119;-78
2021/07/20 06:43:22;;;;;;;37.22;18.02;;;;;;;;;;5087246;28;20048;-78
2021/07/20 06:45:49;;;;;;;37.50;18.35;;;;;;;;;;5105506;28;20546;-77
2021/07/20 06:48:19;;;;;;;39.38;18.00;;;;;;;;;;5084632;28;20047;-78
2021/07/20 06:50:48;;;;;;;41.45;17.23;;;;;;;;;;5087139;28;20039;-78
2021/07/20 06:53:15;;;;;;;38.45;17.98;;;;;;;;;;5087505;28;20474;-78
2021/07/20 06:55:51;;;;;;;39.22;17.08;;;;;;;;;;5086906;28;20042;-78
2021/07/20 06:58:23;;;;;;;33.72;16.38;;;;;;;;;;5103082;28;20054;-79
2021/07/20 07:00:56;;;;;;;33.33;15.27;;;;;;;;;;5086477;28;20036;-78
2021/07/20 07:03:38;;;;;;;30.15;16.05;;;;;;;;;;5087285;28;20036;-79
2021/07/20 07:06:07;;;;;;;29.05;15.27;;;;;;;;;;5105047;28;20383;-78
2021/07/20 07:08:37;;;;;;;35.65;16.70;;;;;;;;;;5104995;28;20097;-78
2021/07/20 07:11:04;;;;;;;28.30;15.50;;;;;;;;;;5097554;28;20063;-78
2021/07/20 07:13:34;;;;;;;30.25;16.33;;;;;;;;;;5105551;28;20565;-77
2021/07/20 07:16:02;;;;;;;30.83;16.50;;;;;;;;;;5104386;28;20036;-79
2021/07/20 07:18:30;;;;;;;29.70;16.73;;;;;;;;;;5104788;28;20043;-78
2021/07/20 07:20:57;;;;;;;32.40;16.85;;;;;;;;;;5105012;28;20039;-79
2021/07/20 07:23:26;;;;;;;32.45;16.25;;;;;;;;;;5086101;28;20035;-78
2021/07/20 07:25:57;;;;;;;32.95;16.30;;;;;;;;;;5102283;28;20116;-77
2021/07/20 07:28:26;;;;;;;32.22;14.93;;;;;;;;;;5104660;28;20378;-77
2021/07/20 07:30:55;;;;;;;32.20;16.02;;;;;;;;;;5070614;28;20040;-78
2021/07/20 07:33:22;;;;;;;28.65;14.73;;;;;;;;;;5103899;28;20071;-77
2021/07/20 07:35:50;;;;;;;26.90;14.30;;;;;;;;;;5104437;28;20054;-78
2021/07/20 07:38:19;;;;;;;24.95;12.73;;;;;;;;;;5105035;28;20071;-77
2021/07/20 07:40:54;;;;;;;30.20;14.43;;;;;;;;;;5104947;28;20421;-77
2021/07/20 07:43:21;;;;;;;25.58;13.80;;;;;;;;;;5086782;28;20042;-78
2021/07/20 07:45:54;;;;;;;22.60;12.68;;;;;;;;;;5081760;28;20043;-83
2021/07/20 07:48:22;;;;;;;24.70;14.23;;;;;;;;;;5085452;28;20050;-81
2021/07/20 07:50:51;;;;;;;23.83;13.05;;;;;;;;;;5104916;28;20105;-81
2021/07/20 07:53:17;;;;;;;23.10;12.80;;;;;;;;;;5089932;28;20043;-79
2021/07/20 07:55:44;;;;;;;25.60;14.10;;;;;;;;;;5104065;28;20035;-79
2021/07/20 07:58:16;;;;;;;25.35;13.27;;;;;;;;;;5103720;28;20085;-78
2021/07/20 08:00:43;;;;;;;23.95;12.85;;;;;;;;;;5103689;28;20031;-81
2021/07/20 08:03:13;;;;;;;23.65;13.30;;;;;;;;;;5102156;28;20071;-77
2021/07/20 08:05:47;;;;;;;22.23;13.27;;;;;;;;;;5083472;28;20040;-77
2021/07/20 08:08:16;;;;;;;27.50;13.85;;;;;;;;;;5080740;28;20050;-77
2021/07/20 08:10:44;;;;;;;27.70;14.93;;;;;;;;;;5085387;28;20110;-77
2021/07/20 08:13:12;;;;;;;23.20;13.63;;;;;;;;;;5102139;28;20047;-78
2021/07/20 08:15:39;;;;;;;23.67;13.73;;;;;;;;;;5090368;28;20093;-78
2021/07/20 08:18:06;;;;;;;24.00;13.30;;;;;;;;;;5103688;28;20032;-78
2021/07/20 08:20:34;;;;;;;20.88;12.13;;;;;;;;;;5103457;28;20116;-78
2021/07/20 08:23:00;;;;;;;25.42;13.93;;;;;;;;;;5104084;28;20447;-77
2021/07/20 08:25:42;;;;;;;28.23;14.68;;;;;;;;;;5075605;28;20039;-79
2021/07/20 08:28:14;;;;;;;24.95;13.48;;;;;;;;;;5075682;28;20032;-78
2021/07/20 08:30:47;;;;;;;24.33;14.30;;;;;;;;;;5100843;28;20043;-78
2021/07/20 08:33:27;;;;;;;26.70;14.55;;;;;;;;;;5085538;28;20031;-77
2021/07/20 08:35:58;;;;;;;31.33;15.43;;;;;;;;;;5103575;28;20040;-76
2021/07/20 08:38:27;;;;;;;27.98;14.82;;;;;;;;;;5103481;28;20042;-78
2021/07/20 08:41:09;;;;;;;31.13;16.13;;;;;;;;;;5092498;28;20517;-79
2021/07/20 08:44:01;;;;;;;25.77;13.50;;;;;;;;;;5091811;28;20402;-77
2021/07/20 08:46:48;;;;;;;29.50;14.82;;;;;;;;;;5085229;28;20036;-77
2021/07/20 08:49:36;;;;;;;25.73;14.57;;;;;;;;;;5100997;28;20044;-80
2021/07/20 08:52:36;;;;;;;25.30;13.77;;;;;;;;;;5101087;28;20036;-77
2021/07/20 08:55:17;;;;;;;25.70;12.57;;;;;;;;;;5069416;28;20405;-80
2021/07/20 08:57:55;;;;;;;26.92;13.95;;;;;;;;;;5100603;28;20043;-81
2021/07/20 09:00:33;;;;;;;25.38;14.15;;;;;;;;;;5103659;28;20118;-77
2021/07/20 09:03:08;;;;;;;30.08;15.98;;;;;;;;;;5104153;28;20493;-77
2021/07/20 09:05:39;;;;;;;29.02;15.02;;;;;;;;;;5107787;28;20115;-78
2021/07/20 09:08:45;;;;;;;29.55;15.65;;;;;;;;;;5107063;28;20040;-81
2021/07/20 09:11:38;;;;;;;27.40;15.07;;;;;;;;;;5069688;28;20035;-77
2021/07/20 09:14:14;;;;;;;29.88;15.65;;;;;;;;;;5104985;28;20039;-77
2021/07/20 09:16:57;;;;;;;24.67;13.80;;;;;;;;;;5107461;28;20122;-78
2021/07/20 09:19:56;;;;;;;23.63;14.18;;;;;;;;;;5088782;28;20040;-78
2021/07/20 09:22:31;;;;;;;25.80;13.48;;;;;;;;;;5086690;28;20036;-78
2021/07/20 09:25:11;;;;;;;27.35;14.32;;;;;;;;;;5078407;28;20527;-78
2021/07/20 09:27:59;;;;;;;21.25;12.55;;;;;;;;;;5085582;28;20047;-78
2021/07/20 09:30:33;;;;;;;23.75;13.82;;;;;;;;;;5097820;28;20038;-75
2021/07/20 09:33:23;;;;;;;24.98;14.38;;;;;;;;;;5088422;28;20044;-78
2021/07/20 09:36:10;;;;;;;27.15;15.55;;;;;;;;;;5079570;28;20126;-79
2021/07/20 09:39:13;;;;;;;31.55;14.45;;;;;;;;;;5105904;28;20043;-78
2021/07/20 09:41:54;;;;;;;27.25;15.85;;;;;;;;;;5096020;28;20043;-78
2021/07/20 09:44:32;;;;;;;30.40;15.30;;;;;;;;;;5090993;28;20046;-78
2021/07/20 09:47:10;;;;;;;30.30;14.48;;;;;;;;;;5061628;28;20047;-81
2021/07/20 09:50:02;;;;;;;29.85;16.40;;;;;;;;;;5088182;28;20044;-79
2021/07/20 09:52:39;;;;;;;25.70;14.60;;;;;;;;;;5104980;28;20058;-79
2021/07/20 09:55:42;;;;;;;26.58;15.43;;;;;;;;;;5094955;28;20463;-76
2021/07/20 09:58:26;;;;;;;23.25;13.35;;;;;;;;;;5100861;28;20051;-83
2021/07/20 10:01:14;;;;;;;29.75;14.88;;;;;;;;;;5106286;28;20049;-78
2021/07/20 10:03:59;;;;;;;25.27;13.70;;;;;;;;;;5099333;28;20128;-76
2021/07/20 10:06:38;;;;;;;31.08;14.50;;;;;;;;;;5067606;28;20577;-76
2021/07/20 10:09:09;;;;;;;29.17;14.52;;;;;;;;;;5057630;28;20089;-76
2021/07/20 10:11:49;;;;;;;27.52;12.57;;;;;;;;;;5067712;28;20043;-76
2021/07/20 10:14:16;;;;;;;27.60;14.93;;;;;;;;;;5090165;28;20093;-77
2021/07/20 10:17:05;;;;;;;25.33;14.68;;;;;;;;;;5087947;28;20075;-77
2021/07/20 10:19:45;;;;;;;27.88;14.73;;;;;;;;;;5087924;28;20489;-80
2021/07/20 10:22:15;;;;;;;27.27;13.60;;;;;;;;;;5105768;28;20062;-77
2021/07/20 10:24:53;;;;;;;27.40;15.55;;;;;;;;;;5083638;28;20115;-77
2021/07/20 10:27:36;;;;;;;35.17;19.33;;;;;;;;;;5105221;28;20523;-77
2021/07/20 10:30:09;;;;;;;35.17;21.70;;;;;;;;;;5096856;28;20081;-77
2021/07/20 10:32:56;;;;;;;47.90;30.20;;;;;;;;;;5076657;28;20066;-76
2021/07/20 10:35:34;;;;;;;55.05;34.05;;;;;;;;;;5079738;28;20397;-79
2021/07/20 10:38:05;;;;;;;58.30;33.55;;;;;;;;;;5088047;28;20121;-76
2021/07/20 10:40:34;;;;;;;48.28;29.42;;;;;;;;;;5066227;28;20048;-77
2021/07/20 10:43:21;;;;;;;41.33;24.60;;;;;;;;;;5073769;28;20048;-77
2021/07/20 10:45:51;;;;;;;50.42;29.15;;;;;;;;;;5093113;28;20055;-79
2021/07/20 10:48:32;;;;;;;41.08;24.20;;;;;;;;;;5092259;28;20043;-76
2021/07/20 10:51:14;;;;;;;46.13;22.88;;;;;;;;;;5094461;28;20037;-78
2021/07/20 10:53:49;;;;;;;39.25;20.15;;;;;;;;;;5093908;28;20119;-77
2021/07/20 10:56:27;;;;;;;32.40;18.15;;;;;;;;;;5091685;28;20070;-76
2021/07/20 10:59:15;;;;;;;29.92;15.43;;;;;;;;;;5072540;28;20050;-83
2021/07/20 11:02:00;;;;;;;24.65;13.57;;;;;;;;;;5098811;28;20127;-76
2021/07/20 11:04:51;;;;;;;27.08;15.25;;;;;;;;;;5100093;28;20044;-78
2021/07/20 11:07:38;;;;;;;29.73;17.05;;;;;;;;;;5086228;28;20144;-76
2021/07/20 11:10:15;;;;;;;27.98;16.67;;;;;;;;;;5085924;28;20477;-77
2021/07/20 11:12:45;;;;;;;33.33;18.40;;;;;;;;;;5090484;28;20040;-79
2021/07/20 11:15:13;;;;;;;30.77;17.75;;;;;;;;;;5100380;28;20065;-78
2021/07/20 11:17:42;;;;;;;32.28;19.20;;;;;;;;;;5083803;28;20064;-78
2021/07/20 11:20:15;;;;;;;32.25;16.85;;;;;;;;;;5099900;28;20039;-78
2021/07/20 11:22:42;;;;;;;24.90;15.27;;;;;;;;;;5103123;28;20046;-79
2021/07/20 11:25:11;;;;;;;25.98;13.43;;;;;;;;;;5102208;28;20075;-78
2021/07/20 11:27:42;;;;;;;28.25;14.93;;;;;;;;;;5096992;28;20055;-81
2021/07/20 11:30:17;;;;;;;29.88;16.38;;;;;;;;;;5096918;28;20110;-80
2021/07/20 11:32:58;;;;;;;32.53;15.88;;;;;;;;;;5082855;28;20039;-82
2021/07/20 11:35:27;;;;;;;33.97;14.55;;;;;;;;;;5100691;28;20070;-83
2021/07/20 11:38:09;;;;;;;30.45;15.10;;;;;;;;;;5093149;28;20520;-79
2021/07/20 11:40:51;;;;;;;32.63;15.00;;;;;;;;;;5091943;28;20039;-79
2021/07/20 11:43:26;;;;;;;30.80;15.48;;;;;;;;;;5092529;28;20114;-81
2021/07/20 11:46:01;;;;;;;26.48;14.35;;;;;;;;;;5099917;28;20431;-80
2021/07/20 11:48:33;;;;;;;30.50;15.85;;;;;;;;;;5084312;28;20050;-79
2021/07/20 11:51:13;;;;;;;27.52;15.60;;;;;;;;;;5082351;28;20040;-78
2021/07/20 11:54:05;;;;;;;26.13;15.48;;;;;;;;;;5098801;28;20043;-78
2021/07/20 11:56:42;;;;;;;30.88;15.15;;;;;;;;;;5095551;28;20054;-78
2021/07/20 11:59:32;;;;;;;22.98;13.52;;;;;;;;;;5103047;28;20046;-79
2021/07/20 12:02:28;;;;;;;22.88;13.75;;;;;;;;;;5074012;28;20070;-78
2021/07/20 12:05:04;;;;;;;30.52;15.60;;;;;;;;;;5100130;28;20054;-79
2021/07/20 12:07:43;;;;;;;28.95;15.45;;;;;;;;;;5084781;28;20051;-78
2021/07/20 12:10:28;;;;;;;31.73;16.80;;;;;;;;;;5100319;28;20145;-79
2021/07/20 12:13:02;;;;;;;31.83;16.08;;;;;;;;;;5092912;28;20051;-79
2021/07/20 12:15:29;;;;;;;25.08;16.00;;;;;;;;;;5075805;28;20046;-78
2021/07/20 12:18:00;;;;;;;28.38;16.88;;;;;;;;;;5085327;28;20055;-78
2021/07/20 12:20:26;;;;;;;27.65;14.93;;;;;;;;;;5091498;28;20040;-78
2021/07/20 12:22:57;;;;;;;26.95;15.40;;;;;;;;;;5088814;28;20077;-78
2021/07/20 12:25:25;;;;;;;24.17;15.43;;;;;;;;;;5067009;28;20031;-81
2021/07/20 12:27:56;;;;;;;28.08;15.75;;;;;;;;;;5099579;28;20028;-78
2021/07/20 12:30:25;;;;;;;24.92;15.20;;;;;;;;;;5101765;28;20062;-77
2021/07/20 12:32:51;;;;;;;23.90;16.25;;;;;;;;;;5091136;28;20055;-78
2021/07/20 12:35:20;;;;;;;23.83;15.45;;;;;;;;;;5102172;28;20038;-79
2021/07/20 12:37:58;;;;;;;;;;;;;;;;;;5082673;28;20069;-78
2021/07/20 12:40:25;;;;;;;22.65;16.33;;;;;;;;;;5101879;28;19916;-78
2021/07/20 12:42:52;;;;;;;24.20;15.13;;;;;;;;;;5102326;28;20043;-79
2021/07/20 12:45:23;;;;;;;24.70;15.98;;;;;;;;;;5099090;28;20040;-79
2021/07/20 12:47:51;;;;;;;22.88;13.90;;;;;;;;;;5080674;28;20447;-80
2021/07/20 12:50:26;;;;;;;21.63;15.85;;;;;;;;;;5082294;28;20051;-80
2021/07/20 12:52:53;;;;;;;26.90;17.73;;;;;;;;;;5100082;28;20043;-80
2021/07/20 12:55:22;;;;;;;28.83;15.35;;;;;;;;;;5082327;28;20614;-79
2021/07/20 12:57:56;;;;;;;27.77;17.30;;;;;;;;;;5101737;28;20065;-83
2021/07/20 13:00:25;;;;;;;27.15;16.27;;;;;;;;;;5081071;28;20516;-78
2021/07/20 13:03:12;;;;;;;22.35;16.15;;;;;;;;;;5090783;28;20120;-78
2021/07/20 13:05:42;;;;;;;;;;;;;;;;;;5101913;28;20049;-80
2021/07/20 13:08:13;;;;;;;28.02;17.60;;;;;;;;;;5100972;28;20340;-78
2021/07/20 13:10:41;;;;;;;25.13;16.98;;;;;;;;;;5102328;28;20122;-86
2021/07/20 13:13:07;;;;;;;23.35;15.38;;;;;;;;;;5082686;28;20032;-83
2021/07/20 13:15:35;;;;;;;22.00;15.02;;;;;;;;;;5086103;28;20056;-86
2021/07/20 13:18:03;;;;;;;31.67;16.90;;;;;;;;;;5054203;28;20036;-85
2021/07/20 13:20:32;;;;;;;31.40;18.05;;;;;;;;;;5081692;28;20406;-86
2021/07/20 13:22:58;;;;;;;;;;;;;;;;;;5064348;28;20062;-88
2021/07/20 13:25:25;;;;;;;28.55;14.85;;;;;;;;;;5081903;28;20313;-86
2021/07/20 13:27:55;;;;;;;21.52;14.77;;;;;;;;;;5070393;28;20502;-84
2021/07/20 13:30:24;;;;;;;19.42;13.35;;;;;;;;;;5077954;28;20040;-82
2021/07/20 13:32:52;;;;;;;19.35;11.15;;;;;;;;;;5095239;28;20051;-82
2021/07/20 13:35:21;;;;;;;18.80;10.02;;;;;;;;;;5098972;28;20067;-77
2021/07/20 13:37:48;;;;;;;14.90;9.57;;;;;;;;;;5100170;28;20078;-83
2021/07/20 13:40:19;;;;;;;15.07;10.18;;;;;;;;;;5080647;28;20043;-81
2021/07/20 13:42:46;;;;;;;18.63;10.65;;;;;;;;;;5081000;28;20050;-81
2021/07/20 13:45:14;;;;;;;19.90;11.32;;;;;;;;;;5081071;28;20046;-81
2021/07/20 13:48:05;;;;;;;20.35;11.20;;;;;;;;;;5082341;28;20092;-82
2021/07/20 13:50:35;;;;;;;19.25;11.10;;;;;;;;;;5090395;28;20546;-81
2021/07/20 13:53:06;;;;;;;17.30;10.60;;;;;;;;;;5102704;28;20097;-82
2021/07/20 13:55:41;;;;;;;18.85;11.65;;;;;;;;;;5104381;28;20051;-81
2021/07/20 13:58:12;;;;;;;14.35;7.78;;;;;;;;;;5092290;28;20540;-81
2021/07/20 14:00:40;;;;;;;15.88;5.85;;;;;;;;;;5100295;28;20120;-82
2021/07/20 14:03:07;;;;;;;13.63;5.07;;;;;;;;;;5081618;28;20070;-80
2021/07/20 14:05:34;;;;;;;10.77;3.78;;;;;;;;;;5087694;28;20043;-82
2021/07/20 14:08:01;;;;;;;10.23;3.83;;;;;;;;;;5097027;28;20040;-81
2021/07/20 14:10:27;;;;;;;8.13;3.33;;;;;;;;;;5080600;28;20043;-81
2021/07/20 14:12:57;;;;;;;10.38;3.55;;;;;;;;;;5084568;28;20044;-81
2021/07/20 14:15:27;;;;;;;12.25;4.07;;;;;;;;;;5090544;28;20051;-80
2021/07/20 14:17:57;;;;;;;8.18;3.50;;;;;;;;;;5069292;28;20048;-81
2021/07/20 14:20:36;;;;;;;12.05;4.13;;;;;;;;;;5057097;28;20071;-80
2021/07/20 14:23:04;;;;;;;10.38;2.45;;;;;;;;;;5088358;28;20328;-82
2021/07/20 14:25:48;;;;;;;4.60;2.50;;;;;;;;;;5067970;28;20430;-82
2021/07/20 14:28:16;;;;;;;5.20;3.15;;;;;;;;;;5061686;28;20079;-80
2021/07/20 14:30:49;;;;;;;4.20;2.35;;;;;;;;;;5082745;28;20070;-81
2021/07/20 14:33:19;;;;;;;7.70;2.70;;;;;;;;;;5076431;28;20040;-81
2021/07/20 14:35:46;;;;;;;5.93;2.42;;;;;;;;;;5085913;28;20126;-82
2021/07/20 14:38:14;;;;;;;6.65;1.98;;;;;;;;;;5087035;28;20045;-81
2021/07/20 14:40:42;;;;;;;5.18;2.35;;;;;;;;;;5083658;28;20052;-80
2021/07/20 14:43:10;;;;;;;4.10;2.30;;;;;;;;;;5088224;28;20081;-83
2021/07/20 14:45:38;;;;;;;6.85;3.17;;;;;;;;;;5072282;28;20051;-83
2021/07/20 14:48:08;;;;;;;6.20;2.20;;;;;;;;;;5088750;28;20040;-79
2021/07/20 14:50:48;;;;;;;5.53;2.42;;;;;;;;;;5073096;28;20911;-79
2021/07/20 14:53:22;;;;;;;7.95;2.38;;;;;;;;;;5065502;28;20040;-80